Terminal Aerodrome Forecast
Issued by NWS Mt. Holly, NJ

Home | Current Version | Previous Version | Text Only | Print | Product List | Glossary On
Versions: 1 2 3 4 5 6 7 8 9 10 11 12 13 14 15 16 17
000
FTUS41 KPHI 222300 RRA
TAFTTN
TAF
KTTN 222346Z 2300/2324 36016G24KT 6SM -RA BR SCT015 OVC030
     FM230300 36014G22KT 4SM -RA BR SCT015 OVC025
     FM230600 01015G23KT 6SM -SHRA OVC015
     FM230800 36015G23KT P6SM -SHRA OVC015
     FM231600 36017G30KT P6SM OVC025 PROB30 2316/2318 P6SM -RA
      OVC015
     FM232100 36012G21KT P6SM SCT025 OVC050=

USA.gov is the U.S. government's official web portal to all federal, state and local government web resources and services.